Hlavní strana
METAR-TAF:

METAR-TAF

Letiště :

Cincinnati Municipal Airport-Lunken Field

Cincinnati, Ohio, Spojené státy americké

zeměpisná šířka: 39-06-21N, zeměpisná délka: 084-24-57W, výška: 147 m

Aktuální stav počasí

Zpráva byla vytvořena před 26 minutami, v 20:53 UTC
vítr z různých směrů 4 kt
Teplota 9°C
Vlhkost vzduchu 37%
Tlak 1027 hPa
Viditelnost: 16.1 km
Jasno

METAR: KLUK 252053Z VRB04KT 10SM CLR 09/M05 A3032 RMK AO2 SLP270 T00941050 56014

Čas: 16:19 (21:19 UTC)

Předpověď počasí

Zpráva byla vytvořena před 3 hodinami a 44 minutami, v 17:35 UTC
Předpověď platná od 25 v 18 UTC do 26 v 18 UTC
Severoseverozápadní vítr 5 kt
Viditelnost: 10 km
Skoro jasno ve výšce 25000 ft
Od 26 v 1300 UTC
Východní vítr 5 kt
Viditelnost: 10 km
Oblačno až skoro zataženo ve výšce 25000 ft

TAF: KLUK 251735Z 2518/2618 34005KT P6SM FEW250 FM261300 09005KT P6SM BKN250

Stav a předpovědi počasí z více než 4 000 letišť (zprávy METAR a TAF).

Červené a žluté tečky na mapě představují dostupné meteorologické stanice.

Když kurzor umístíte na tečku, zobrazí se název stanice.

Pak kliknutím zobrazíte stav a předpověď počasí.

Chcete-li změnit mapu, kliknutím na zelené tlačítko se znaménkem +mapu přiblížíte, kliknutím na zelené tlačítko se znaménkem – mapu oddálíte a kliknutím na zelené šipky přejdete na sousední mapy.


METAR-TAF: